Time;durP1;ratioP1;P1;durP2;ratioP2;P2;SDS_P1;SDS_P2;PMS_P1;PMS_P2;Temp;Humidity;BMP_temperature;BMP_pressure;BME280_temperature;BME280_humidity;BME280_pressure;Samples;Min_cycle;Max_cycle;Signal;HPM_P1;HPM_P2
2022/10/01 00:02:01;;;;;;;11.38;9.43;;;11.70;99.90;;;;;;4953453;28;20043;-58
2022/10/01 00:04:27;;;;;;;11.02;9.00;;;11.70;99.90;;;;;;4950631;28;20061;-58
2022/10/01 00:06:53;;;;;;;11.75;9.25;;;11.70;99.90;;;;;;4953125;28;20101;-57
2022/10/01 00:09:19;;;;;;;13.32;9.68;;;11.70;99.90;;;;;;4953965;28;20031;-58
2022/10/01 00:11:45;;;;;;;13.85;10.45;;;11.70;99.90;;;;;;4950372;28;20042;-57
2022/10/01 00:14:10;;;;;;;12.45;10.13;;;11.70;99.90;;;;;;4955798;28;20039;-58
2022/10/01 00:16:36;;;;;;;10.30;9.27;;;11.70;99.90;;;;;;4949431;28;20074;-56
2022/10/01 00:19:02;;;;;;;11.10;9.77;;;11.70;99.90;;;;;;4957131;28;20061;-57
2022/10/01 00:21:30;;;;;;;11.45;9.60;;;11.70;99.90;;;;;;4955465;28;20502;-58
2022/10/01 00:24:04;;;;;;;12.00;9.93;;;11.60;99.90;;;;;;4955381;28;20122;-58
2022/10/01 00:26:32;;;;;;;13.13;10.93;;;11.60;99.90;;;;;;4956729;28;20498;-58
2022/10/01 00:29:01;;;;;;;10.70;9.60;;;11.60;99.90;;;;;;4957895;28;20663;-58
2022/10/01 00:31:27;;;;;;;11.35;9.90;;;11.60;99.90;;;;;;4960051;28;20035;-58
2022/10/01 00:33:54;;;;;;;13.18;10.00;;;11.60;99.90;;;;;;4955323;28;20077;-57
2022/10/01 00:36:21;;;;;;;12.18;10.20;;;11.60;99.90;;;;;;4969864;28;20047;-58
2022/10/01 00:38:47;;;;;;;11.55;10.15;;;11.60;99.90;;;;;;4954726;28;20039;-57
2022/10/01 00:41:13;;;;;;;12.75;10.27;;;11.60;99.90;;;;;;4974470;28;20413;-58
2022/10/01 00:43:49;;;;;;;12.52;10.40;;;11.60;99.90;;;;;;4971072;28;20046;-58
2022/10/01 00:46:24;;;;;;;11.20;9.68;;;11.50;99.90;;;;;;4951505;28;20050;-58
2022/10/01 00:48:57;;;;;;;10.63;9.43;;;11.50;99.90;;;;;;4953716;28;20031;-57
2022/10/01 00:51:31;;;;;;;12.02;9.50;;;11.50;99.90;;;;;;4947545;28;20281;-58
2022/10/01 00:54:04;;;;;;;10.57;9.07;;;11.50;99.90;;;;;;4958397;28;20125;-58
2022/10/01 00:56:31;;;;;;;10.55;9.45;;;11.50;99.90;;;;;;4964387;28;20077;-58
2022/10/01 00:58:59;;;;;;;10.70;9.43;;;11.50;99.90;;;;;;4967577;28;20470;-58
2022/10/01 01:01:25;;;;;;;10.15;9.00;;;11.50;99.90;;;;;;4958389;28;20047;-56
2022/10/01 01:03:54;;;;;;;12.55;9.88;;;11.50;99.90;;;;;;5009249;23;20033;-82
2022/10/01 01:06:20;;;;;;;10.52;8.88;;;11.50;99.90;;;;;;4986404;28;20097;-83
2022/10/01 01:08:53;;;;;;;10.70;9.23;;;12.40;99.90;;;;;;5003445;28;20099;-84
2022/10/01 01:11:44;;;;;;;12.32;9.70;;;11.80;99.90;;;;;;4993564;28;20030;-83
2022/10/01 01:14:22;;;;;;;12.13;9.07;;;10.80;99.90;;;;;;4997865;28;20044;-83
2022/10/01 01:16:57;;;;;;;11.18;8.27;;;11.50;99.90;;;;;;5009817;28;20069;-82
2022/10/01 01:19:42;;;;;;;11.67;8.10;;;11.40;99.90;;;;;;5010032;28;20045;-81
2022/10/01 01:22:10;;;;;;;;;;;11.40;99.90;;;;;;5011950;28;20128;-83
2022/10/01 01:25:00;;;;;;;12.52;8.95;;;11.40;99.90;;;;;;5011429;28;19924;-82
2022/10/01 01:27:39;;;;;;;11.30;8.70;;;11.60;99.90;;;;;;5000670;28;20498;-83
2022/10/01 01:30:14;;;;;;;11.90;9.60;;;11.40;99.90;;;;;;4993204;28;20049;-84
2022/10/01 01:32:50;;;;;;;11.02;8.38;;;11.00;99.90;;;;;;5010001;28;20038;-82
2022/10/01 01:35:26;;;;;;;11.52;9.05;;;11.40;99.90;;;;;;4988033;28;20034;-83
2022/10/01 01:37:57;;;;;;;10.73;8.68;;;11.40;99.90;;;;;;4989725;28;20045;-82
2022/10/01 01:40:25;;;;;;;10.35;7.60;;;12.10;99.90;;;;;;5012644;28;20046;-83
2022/10/01 01:42:52;;;;;;;8.52;6.63;;;11.40;99.90;;;;;;4997612;28;20417;-84
2022/10/01 01:45:24;;;;;;;8.25;6.55;;;10.80;99.90;;;;;;4996828;28;20080;-83
2022/10/01 01:47:54;;;;;;;9.10;7.65;;;11.30;99.90;;;;;;5016375;28;20128;-81
2022/10/01 01:50:24;;;;;;;8.15;6.97;;;11.40;99.90;;;;;;4997620;28;20306;-83
2022/10/01 01:52:52;;;;;;;9.40;6.25;;;11.40;99.90;;;;;;5032589;28;20037;-84
2022/10/01 01:55:22;;;;;;;7.97;6.88;;;11.40;99.90;;;;;;5031528;28;20068;-83
2022/10/01 01:57:48;;;;;;;7.25;6.35;;;11.30;99.90;;;;;;5029549;28;20034;-83
2022/10/01 02:00:41;;;;;;;8.90;6.80;;;11.10;99.90;;;;;;4999286;28;20439;-83
2022/10/01 02:03:08;;;;;;;8.27;6.43;;;11.40;99.90;;;;;;5009365;28;20056;-83
2022/10/01 02:05:47;;;;;;;7.28;6.18;;;11.40;99.90;;;;;;5007433;28;20096;-82
2022/10/01 02:08:18;;;;;;;7.47;6.60;;;11.50;99.90;;;;;;5013205;28;20101;-82
2022/10/01 02:11:05;;;;;;;7.88;6.43;;;11.40;99.90;;;;;;4986342;28;20064;-82
2022/10/01 02:14:03;;;;;;;6.35;5.68;;;11.40;99.90;;;;;;5005080;28;20525;-81
2022/10/01 02:16:47;;;;;;;11.20;6.30;;;11.40;99.90;;;;;;4997277;28;21749;-84
2022/10/01 02:19:35;;;;;;;7.13;5.90;;;11.40;99.90;;;;;;4992372;28;20045;-83
2022/10/01 02:22:17;;;;;;;7.18;5.93;;;11.40;99.90;;;;;;4990591;28;20045;-83
2022/10/01 02:24:52;;;;;;;7.40;5.50;;;11.40;99.90;;;;;;4986814;28;20068;-83
2022/10/01 02:27:29;;;;;;;6.40;5.43;;;11.40;99.90;;;;;;4996598;28;20033;-82
2022/10/01 02:29:58;;;;;;;6.68;5.50;;;11.50;99.90;;;;;;5012818;28;20038;-82
2022/10/01 02:32:25;;;;;;;7.30;5.57;;;11.50;99.90;;;;;;5031101;28;20049;-83
2022/10/01 02:34:53;;;;;;;6.50;5.10;;;11.50;99.90;;;;;;5008334;28;20042;-82
2022/10/01 02:37:23;;;;;;;6.60;4.93;;;11.60;99.90;;;;;;4996729;28;20033;-82
2022/10/01 02:39:51;;;;;;;5.80;4.90;;;11.50;99.90;;;;;;5001497;28;20190;-83
2022/10/01 02:42:19;;;;;;;6.72;5.28;;;11.60;99.90;;;;;;4995623;28;20521;-82
2022/10/01 02:44:47;;;;;;;5.63;4.85;;;12.00;99.90;;;;;;5010742;28;20045;-82
2022/10/01 02:47:24;;;;;;;5.10;4.57;;;11.60;99.90;;;;;;5010331;28;20036;-83
2022/10/01 02:49:50;;;;;;;6.55;4.57;;;11.60;99.90;;;;;;4993818;28;20049;-83
2022/10/01 02:52:38;;;;;;;6.50;5.10;;;11.70;99.90;;;;;;4996507;28;20185;-83
2022/10/01 02:55:11;;;;;;;5.68;4.50;;;11.60;99.90;;;;;;4997516;28;20072;-83
2022/10/01 02:57:37;;;;;;;5.20;4.28;;;11.60;99.90;;;;;;5014607;28;20038;-82
2022/10/01 03:00:07;;;;;;;7.75;5.18;;;11.60;99.90;;;;;;5012234;28;20041;-83
2022/10/01 03:02:33;;;;;;;5.47;4.25;;;11.60;99.90;;;;;;4994504;28;20041;-83
2022/10/01 03:04:59;;;;;;;4.90;4.40;;;11.80;99.90;;;;;;4990906;28;20037;-83
2022/10/01 03:07:27;;;;;;;5.25;3.88;;;11.70;99.90;;;;;;5006715;28;20038;-82
2022/10/01 03:09:52;;;;;;;4.97;3.80;;;11.70;99.90;;;;;;5015095;28;20077;-82
2022/10/01 03:12:19;;;;;;;3.72;3.28;;;11.70;99.90;;;;;;5003756;28;20069;-83
2022/10/01 03:14:45;;;;;;;4.25;3.30;;;11.70;99.90;;;;;;4995895;28;20049;-83
2022/10/01 03:17:12;;;;;;;4.85;3.22;;;11.70;99.90;;;;;;5000677;28;20041;-82
2022/10/01 03:19:39;;;;;;;4.03;2.97;;;11.70;99.90;;;;;;4990516;28;20072;-83
2022/10/01 03:22:05;;;;;;;4.20;3.47;;;11.70;99.90;;;;;;5008649;28;20045;-82
2022/10/01 03:24:31;;;;;;;4.88;3.33;;;11.80;99.90;;;;;;4974848;28;20506;-83
2022/10/01 03:26:57;;;;;;;3.40;3.00;;;11.80;99.90;;;;;;4975283;28;20050;-82
2022/10/01 03:29:24;;;;;;;7.35;3.15;;;11.80;99.90;;;;;;4970069;28;20041;-83
2022/10/01 03:31:50;;;;;;;4.70;2.55;;;11.80;99.90;;;;;;5007296;28;20556;-82
2022/10/01 03:34:16;;;;;;;5.68;2.67;;;12.00;99.90;;;;;;5003095;28;20179;-83
2022/10/01 03:36:42;;;;;;;4.72;2.95;;;11.80;99.90;;;;;;4983948;28;20041;-83
2022/10/01 03:39:08;;;;;;;2.95;2.30;;;11.90;99.90;;;;;;4976349;28;20295;-81
2022/10/01 03:41:33;;;;;;;3.92;2.72;;;11.80;99.90;;;;;;4977515;28;20046;-83
2022/10/01 03:43:59;;;;;;;3.13;2.83;;;11.90;99.90;;;;;;4974602;28;20080;-84
2022/10/01 03:46:25;;;;;;;3.17;2.70;;;11.90;99.90;;;;;;4977696;28;20075;-82
2022/10/01 03:49:00;;;;;;;3.60;3.00;;;11.90;99.90;;;;;;4991501;28;20071;-83
2022/10/01 03:51:27;;;;;;;4.47;2.85;;;11.90;99.90;;;;;;5009749;28;20540;-82
2022/10/01 03:53:53;;;;;;;3.65;2.53;;;11.90;99.90;;;;;;5020545;28;20045;-84
2022/10/01 03:56:25;;;;;;;4.32;3.08;;;11.90;99.90;;;;;;5025320;28;20047;-84
2022/10/01 03:58:51;;;;;;;4.35;3.20;;;11.90;99.90;;;;;;4994846;28;20038;-83
2022/10/01 04:01:17;;;;;;;4.35;3.25;;;11.90;99.90;;;;;;4976939;28;20387;-83
2022/10/01 04:03:43;;;;;;;4.68;3.30;;;11.90;99.90;;;;;;4988937;28;20134;-82
2022/10/01 04:06:09;;;;;;;4.82;3.60;;;11.90;99.90;;;;;;4990512;28;20045;-82
2022/10/01 04:08:35;;;;;;;5.20;3.78;;;11.90;99.90;;;;;;4989509;28;20042;-83
2022/10/01 04:11:00;;;;;;;3.80;3.17;;;11.90;99.90;;;;;;4958702;28;20041;-84
2022/10/01 04:13:28;;;;;;;4.15;3.20;;;11.90;99.90;;;;;;4976131;28;20076;-82
2022/10/01 04:15:54;;;;;;;4.00;3.20;;;11.90;99.90;;;;;;5005343;28;20550;-82
2022/10/01 04:18:20;;;;;;;4.60;3.33;;;12.00;99.90;;;;;;5008214;28;20033;-84
2022/10/01 04:20:47;;;;;;;3.65;3.20;;;12.10;99.90;;;;;;4966160;28;20037;-83
2022/10/01 04:23:13;;;;;;;3.63;3.20;;;12.00;99.90;;;;;;5008862;28;20045;-83
2022/10/01 04:25:40;;;;;;;4.65;3.50;;;12.00;99.90;;;;;;5006376;28;20034;-82
2022/10/01 04:28:09;;;;;;;4.75;3.40;;;12.00;99.90;;;;;;5007180;28;20276;-83
2022/10/01 04:30:37;;;;;;;3.75;3.22;;;12.00;99.90;;;;;;5000992;28;20046;-83
2022/10/01 04:33:04;;;;;;;5.55;4.30;;;12.00;99.90;;;;;;4987963;28;20033;-83
2022/10/01 04:35:30;;;;;;;3.83;3.30;;;12.10;99.90;;;;;;4979945;28;20045;-83
2022/10/01 04:38:00;;;;;;;4.43;3.78;;;12.10;99.90;;;;;;5002491;28;20071;-84
2022/10/01 04:42:57;;;;;;;7.30;4.43;;;12.20;99.90;;;;;;4944785;28;20611;-60
2022/10/01 04:45:23;;;;;;;6.40;4.57;;;12.10;99.90;;;;;;4946385;28;20666;-60
2022/10/01 04:47:50;;;;;;;4.78;4.30;;;12.10;99.90;;;;;;4931702;28;20042;-61
2022/10/01 04:50:17;;;;;;;4.70;4.05;;;12.20;99.90;;;;;;4949572;28;20159;-60
2022/10/01 04:52:43;;;;;;;7.32;4.45;;;12.30;99.90;;;;;;4964346;28;20126;-59
2022/10/01 04:55:10;;;;;;;4.75;4.30;;;12.30;99.90;;;;;;4949278;28;20571;-60
2022/10/01 04:57:37;;;;;;;7.25;4.75;;;12.40;99.90;;;;;;4968314;28;20079;-60
2022/10/01 05:00:08;;;;;;;7.53;4.95;;;12.40;99.90;;;;;;4975449;28;20058;-60
2022/10/01 05:02:34;;;;;;;6.45;4.78;;;12.40;99.90;;;;;;4945385;28;20191;-61
2022/10/01 05:05:05;;;;;;;8.75;5.50;;;12.50;99.90;;;;;;4968904;28;20069;-60
2022/10/01 05:07:32;;;;;;;7.25;4.53;;;12.50;99.90;;;;;;4967161;28;20046;-60
2022/10/01 05:09:59;;;;;;;7.20;4.93;;;12.60;99.90;;;;;;4970190;28;20041;-60
2022/10/01 05:12:24;;;;;;;9.90;4.60;;;12.60;99.90;;;;;;4961182;28;20038;-61
2022/10/01 05:14:51;;;;;;;7.50;4.45;;;12.70;99.90;;;;;;4958304;28;20054;-61
2022/10/01 05:17:18;;;;;;;11.93;4.80;;;12.70;99.90;;;;;;4963852;28;20062;-61
2022/10/01 05:19:44;;;;;;;9.27;4.13;;;12.70;99.90;;;;;;4947731;28;20096;-60
2022/10/01 05:22:11;;;;;;;8.90;5.50;;;12.80;99.90;;;;;;4969855;28;20043;-60
2022/10/01 05:24:37;;;;;;;7.63;4.95;;;12.80;99.90;;;;;;4962745;28;20042;-60
2022/10/01 05:27:03;;;;;;;9.43;5.03;;;12.80;99.90;;;;;;4958584;28;20047;-60
2022/10/01 05:29:29;;;;;;;10.05;4.40;;;12.80;99.90;;;;;;4958071;28;20395;-60
2022/10/01 05:31:56;;;;;;;9.30;4.78;;;12.90;99.90;;;;;;4951161;28;20467;-60
2022/10/01 05:34:22;;;;;;;8.18;4.97;;;12.90;99.90;;;;;;4967785;28;20046;-61
2022/10/01 05:36:47;;;;;;;8.50;5.32;;;12.90;99.90;;;;;;4958185;28;20219;-61
2022/10/01 05:39:13;;;;;;;12.65;5.25;;;12.90;99.90;;;;;;4960959;28;20074;-60
2022/10/01 05:41:39;;;;;;;9.90;4.85;;;12.90;99.90;;;;;;4963518;28;20041;-59
2022/10/01 05:44:09;;;;;;;8.77;4.95;;;12.90;99.90;;;;;;4952813;28;20042;-59
2022/10/01 05:46:34;;;;;;;9.90;5.13;;;12.90;99.90;;;;;;4960531;28;20043;-61
2022/10/01 05:49:00;;;;;;;9.35;5.00;;;12.90;99.90;;;;;;4922996;28;21652;-59
2022/10/01 05:51:26;;;;;;;13.65;6.00;;;12.90;99.90;;;;;;4937502;28;20467;-59
2022/10/01 05:53:57;;;;;;;8.95;4.30;;;12.90;99.90;;;;;;4950406;28;20042;-59
2022/10/01 05:56:24;;;;;;;9.55;4.00;;;12.90;99.90;;;;;;4951412;28;20041;-59
2022/10/01 05:58:50;;;;;;;9.80;4.38;;;12.90;99.90;;;;;;4928248;28;20413;-59
2022/10/01 06:01:16;;;;;;;11.07;4.47;;;12.90;99.90;;;;;;4956182;28;20039;-60
2022/10/01 06:03:43;;;;;;;9.90;4.55;;;12.90;99.90;;;;;;4959529;28;20140;-59
2022/10/01 06:06:09;;;;;;;10.60;4.00;;;13.00;99.90;;;;;;4945661;28;20054;-60
2022/10/01 06:08:35;;;;;;;12.38;4.05;;;13.00;99.90;;;;;;4945550;28;20035;-59
2022/10/01 06:11:02;;;;;;;11.65;4.10;;;13.00;99.90;;;;;;4962124;28;20055;-60
2022/10/01 06:13:28;;;;;;;11.63;3.75;;;13.00;99.90;;;;;;4946103;28;20075;-61
2022/10/01 06:15:54;;;;;;;9.75;3.60;;;13.10;99.90;;;;;;4956173;28;20857;-59
2022/10/01 06:18:19;;;;;;;15.02;3.95;;;13.10;99.90;;;;;;4926308;28;20046;-60
2022/10/01 06:20:45;;;;;;;15.32;3.95;;;13.10;99.90;;;;;;4960674;28;20053;-59
2022/10/01 06:23:12;;;;;;;12.70;4.28;;;13.10;99.90;;;;;;4954802;28;20046;-61
2022/10/01 06:25:40;;;;;;;17.98;4.40;;;13.20;99.90;;;;;;4932999;28;20050;-60
2022/10/01 06:28:08;;;;;;;11.20;3.53;;;13.20;99.90;;;;;;4952254;28;20039;-60
2022/10/01 06:30:35;;;;;;;11.02;3.67;;;13.30;99.90;;;;;;4946897;28;20574;-59
2022/10/01 06:33:13;;;;;;;15.82;3.90;;;13.30;99.90;;;;;;4946852;28;21183;-60
2022/10/01 06:35:42;;;;;;;15.30;4.85;;;13.30;99.90;;;;;;4941993;28;20053;-60
2022/10/01 06:38:08;;;;;;;12.05;4.00;;;13.30;99.90;;;;;;4941835;28;20039;-64
2022/10/01 06:40:35;;;;;;;17.13;3.97;;;13.30;99.90;;;;;;4958558;28;20047;-60
2022/10/01 06:43:01;;;;;;;11.88;3.40;;;13.40;99.90;;;;;;4937693;28;20518;-60
2022/10/01 06:45:28;;;;;;;16.63;3.53;;;13.40;99.90;;;;;;4963114;28;20047;-59
2022/10/01 06:47:55;;;;;;;9.07;3.67;;;13.50;99.90;;;;;;4972763;28;20046;-59
2022/10/01 06:50:22;;;;;;;17.55;4.60;;;13.30;99.90;;;;;;4949366;28;20085;-60
2022/10/01 06:52:48;;;;;;;14.13;3.67;;;13.40;99.90;;;;;;4950740;28;20043;-60
2022/10/01 06:55:19;;;;;;;15.55;4.45;;;13.30;99.90;;;;;;4954538;28;20035;-60
2022/10/01 06:57:45;;;;;;;19.38;5.53;;;13.40;99.90;;;;;;4956011;28;20244;-61
2022/10/01 07:00:13;;;;;;;16.50;3.45;;;13.30;99.90;;;;;;4957710;28;20031;-60
2022/10/01 07:02:39;;;;;;;12.60;3.55;;;13.30;99.90;;;;;;4959536;28;20161;-61
2022/10/01 07:05:06;;;;;;;16.92;3.75;;;13.30;99.90;;;;;;4959579;28;20484;-61
2022/10/01 07:07:36;;;;;;;17.95;3.78;;;13.30;99.90;;;;;;4950825;28;20040;-61
2022/10/01 07:10:04;;;;;;;9.98;3.05;;;13.30;99.90;;;;;;4938742;28;20051;-60
2022/10/01 07:12:31;;;;;;;11.93;3.17;;;13.30;99.90;;;;;;4958220;28;20050;-60
2022/10/01 07:14:57;;;;;;;14.80;4.03;;;13.30;99.90;;;;;;4955013;28;20049;-61
2022/10/01 07:17:23;;;;;;;15.35;3.40;;;13.40;99.90;;;;;;4955218;28;20453;-60
2022/10/01 07:19:49;;;;;;;22.67;4.07;;;13.50;99.90;;;;;;4951119;28;20494;-60
2022/10/01 07:22:16;;;;;;;18.45;3.78;;;13.60;99.90;;;;;;4956963;28;20048;-61
2022/10/01 07:24:42;;;;;;;15.35;2.70;;;13.70;99.90;;;;;;4916446;28;20046;-60
2022/10/01 07:27:08;;;;;;;12.48;2.70;;;13.80;99.90;;;;;;4942417;28;20044;-59
2022/10/01 07:29:34;;;;;;;9.73;2.55;;;13.80;99.90;;;;;;4961700;28;20047;-59
2022/10/01 07:32:00;;;;;;;9.75;2.45;;;13.90;99.90;;;;;;4960404;28;20142;-60
2022/10/01 07:34:27;;;;;;;13.27;2.25;;;14.00;99.90;;;;;;4959853;28;20370;-59
2022/10/01 07:36:55;;;;;;;7.20;2.10;;;14.10;99.90;;;;;;4961743;28;20538;-60
2022/10/01 07:39:21;;;;;;;12.65;3.13;;;14.10;99.90;;;;;;4952808;28;20053;-60
2022/10/01 07:41:47;;;;;;;11.88;2.17;;;14.20;99.90;;;;;;4913633;28;20278;-61
2022/10/01 07:44:13;;;;;;;10.48;2.55;;;14.30;99.90;;;;;;4941141;28;20130;-60
2022/10/01 07:46:39;;;;;;;8.20;2.97;;;14.40;99.90;;;;;;4952077;28;20077;-61
2022/10/01 07:49:05;;;;;;;13.18;2.72;;;14.50;99.90;;;;;;4946936;28;20605;-60
2022/10/01 07:51:31;;;;;;;14.95;2.75;;;14.60;99.90;;;;;;4942136;28;20046;-60
2022/10/01 07:53:58;;;;;;;13.30;2.22;;;14.70;99.90;;;;;;4947971;28;20098;-60
2022/10/01 07:56:24;;;;;;;16.70;3.03;;;14.70;99.90;;;;;;4941427;28;20077;-59
2022/10/01 07:58:56;;;;;;;12.23;2.35;;;14.80;99.90;;;;;;4957365;28;20093;-60
2022/10/01 08:01:23;;;;;;;14.43;3.13;;;15.00;99.90;;;;;;4947907;28;20117;-60
2022/10/01 08:03:50;;;;;;;11.90;2.65;;;15.10;99.90;;;;;;4955476;28;20474;-60
2022/10/01 08:06:17;;;;;;;13.50;3.03;;;15.30;99.90;;;;;;4943035;28;20469;-61
2022/10/01 08:08:43;;;;;;;12.60;2.40;;;15.40;99.90;;;;;;4946182;28;20053;-59
2022/10/01 08:11:12;;;;;;;11.98;2.75;;;15.60;99.90;;;;;;4942964;28;20050;-60
2022/10/01 08:13:38;;;;;;;12.75;3.03;;;15.70;99.90;;;;;;4955964;28;20058;-61
2022/10/01 08:16:06;;;;;;;16.60;4.03;;;15.70;99.90;;;;;;4969074;28;20035;-60
2022/10/01 08:18:33;;;;;;;15.70;3.10;;;15.70;99.90;;;;;;4958488;28;20279;-61
2022/10/01 08:21:02;;;;;;;16.30;4.18;;;15.60;99.90;;;;;;4956272;28;20051;-60
2022/10/01 08:23:33;;;;;;;18.42;3.25;;;15.70;99.90;;;;;;4963483;28;20697;-62
2022/10/01 08:26:08;;;;;;;20.42;3.22;;;15.70;99.90;;;;;;4979568;28;20417;-61
2022/10/01 08:28:34;;;;;;;18.48;3.22;;;15.60;99.90;;;;;;4969393;28;20093;-62
2022/10/01 08:31:08;;;;;;;15.45;2.55;;;15.40;99.90;;;;;;4960281;28;20040;-61
2022/10/01 08:33:34;;;;;;;;;;;15.40;99.90;;;;;;4963949;28;20031;-61
2022/10/01 08:36:02;;;;;;;13.68;2.47;;;15.30;99.90;;;;;;4968021;28;19938;-61
2022/10/01 08:38:28;;;;;;;14.95;2.80;;;15.20;99.90;;;;;;4963968;28;20509;-62
2022/10/01 08:40:54;;;;;;;14.77;2.83;;;15.10;99.90;;;;;;4969639;28;20050;-62
2022/10/01 08:43:28;;;;;;;16.92;3.17;;;15.20;99.90;;;;;;4963833;28;20039;-61
2022/10/01 08:45:56;;;;;;;;;;;15.30;99.90;;;;;;4961073;28;20086;-62
2022/10/01 08:48:46;;;;;;;14.18;2.67;;;15.40;99.90;;;;;;4963499;28;20062;-61
2022/10/01 08:51:22;;;;;;;10.95;2.60;;;15.60;99.90;;;;;;4963673;28;20039;-62
2022/10/01 08:54:03;;;;;;;10.07;2.15;;;15.70;99.90;;;;;;4966750;28;20031;-62
2022/10/01 08:56:30;;;;;;;12.75;2.33;;;15.70;99.90;;;;;;4950910;28;20318;-61
2022/10/01 08:58:59;;;;;;;11.57;2.05;;;15.40;99.90;;;;;;4957169;28;20054;-62
2022/10/01 09:01:28;;;;;;;11.13;2.58;;;15.30;99.90;;;;;;4969531;28;20051;-60
2022/10/01 09:03:55;;;;;;;8.70;1.73;;;15.20;99.90;;;;;;4985548;28;20038;-62
2022/10/01 09:06:25;;;;;;;5.72;1.88;;;15.20;99.90;;;;;;4965157;28;20145;-62
2022/10/01 09:09:00;;;;;;;8.07;1.80;;;15.20;99.90;;;;;;4965799;28;20058;-62
2022/10/01 09:11:34;;;;;;;8.98;2.13;;;15.20;99.90;;;;;;4964615;28;20043;-61
2022/10/01 09:14:27;;;;;;;7.38;1.65;;;15.20;99.90;;;;;;4951320;28;20767;-61
2022/10/01 09:17:10;;;;;;;10.50;2.35;;;15.30;99.90;;;;;;4963704;28;20049;-62
2022/10/01 09:19:41;;;;;;;9.20;1.65;;;15.40;99.90;;;;;;4960182;28;20138;-59
2022/10/01 09:22:31;;;;;;;11.23;2.17;;;15.20;99.90;;;;;;4958950;28;20046;-60
2022/10/01 09:25:08;;;;;;;7.75;1.45;;;15.20;99.90;;;;;;4944599;28;20043;-60
2022/10/01 09:27:36;;;;;;;10.10;2.13;;;15.10;99.90;;;;;;4960296;28;20041;-61
2022/10/01 09:30:20;;;;;;;6.90;1.55;;;15.10;99.90;;;;;;4960543;28;20424;-61
2022/10/01 09:33:19;;;;;;;;;;;15.00;99.90;;;;;;4970482;28;20038;-61
2022/10/01 09:35:55;;;;;;;8.70;2.30;;;14.80;99.90;;;;;;4949063;28;19926;-60
2022/10/01 09:38:30;;;;;;;9.10;2.58;;;14.50;99.90;;;;;;4964236;28;20146;-61
2022/10/01 09:40:57;;;;;;;7.57;2.00;;;14.40;99.90;;;;;;4960943;28;20050;-61
2022/10/01 09:43:28;;;;;;;10.27;2.63;;;14.20;99.90;;;;;;4961348;28;20055;-61
2022/10/01 09:45:54;;;;;;;8.32;1.60;;;14.00;99.90;;;;;;4962968;28;20085;-61
2022/10/01 09:48:39;;;;;;;8.23;1.75;;;13.80;99.90;;;;;;4949117;28;20133;-61
2022/10/01 09:51:21;;;;;;;6.32;1.40;;;13.80;99.90;;;;;;4975713;28;20114;-61
2022/10/01 09:53:58;;;;;;;10.60;2.40;;;13.80;99.90;;;;;;4968789;28;20059;-60
2022/10/01 09:56:29;;;;;;;12.98;2.47;;;13.70;99.90;;;;;;4988295;28;20038;-61
2022/10/01 09:59:00;;;;;;;6.68;1.55;;;13.70;99.90;;;;;;4966893;28;20334;-61
2022/10/01 10:01:43;;;;;;;6.35;1.38;;;13.70;99.90;;;;;;4975541;28;20130;-61
2022/10/01 10:04:10;;;;;;;6.90;2.30;;;13.70;99.90;;;;;;4964233;28;20117;-61
2022/10/01 10:06:37;;;;;;;8.82;1.38;;;13.90;99.90;;;;;;4962310;28;20098;-61
2022/10/01 10:09:03;;;;;;;6.28;1.45;;;14.20;99.90;;;;;;4965035;28;20046;-61
2022/10/01 10:11:30;;;;;;;7.25;1.60;;;14.50;99.90;;;;;;4981338;28;20047;-62
2022/10/01 10:14:03;;;;;;;8.57;1.95;;;14.70;99.90;;;;;;4961573;28;20035;-61
2022/10/01 10:16:34;;;;;;;6.13;1.45;;;14.70;99.90;;;;;;4966606;28;20174;-62
2022/10/01 10:19:16;;;;;;;9.07;2.13;;;15.00;99.90;;;;;;4960681;28;20046;-62
2022/10/01 10:21:51;;;;;;;6.13;1.52;;;15.10;99.90;;;;;;4967855;28;20066;-62
2022/10/01 10:24:31;;;;;;;8.45;1.50;;;15.30;99.90;;;;;;4967081;28;20054;-61
2022/10/01 10:26:58;;;;;;;8.00;1.83;;;15.20;99.90;;;;;;4964926;28;20100;-61
2022/10/01 10:29:27;;;;;;;8.90;1.38;;;15.10;99.90;;;;;;4965963;28;20030;-62
2022/10/01 10:31:54;;;;;;;10.45;2.00;;;15.10;99.90;;;;;;4969416;28;20046;-61
2022/10/01 10:34:27;;;;;;;7.82;1.50;;;15.00;99.90;;;;;;4968856;28;20132;-62
2022/10/01 10:36:58;;;;;;;8.27;1.83;;;14.90;99.90;;;;;;4965795;28;20070;-61
2022/10/01 10:39:30;;;;;;;8.43;2.10;;;14.70;99.90;;;;;;4965514;28;20043;-62
2022/10/01 10:41:58;;;;;;;12.70;2.10;;;14.70;99.90;;;;;;5000939;23;20448;-82
2022/10/01 10:44:26;;;;;;;13.57;2.80;;;14.80;99.90;;;;;;5002855;28;20092;-84
2022/10/01 10:47:05;;;;;;;11.65;2.08;;;14.60;99.90;;;;;;4972545;28;20066;-83
2022/10/01 10:50:02;;;;;;;13.50;2.90;;;14.70;99.90;;;;;;4969503;28;20078;-81
2022/10/01 10:52:55;;;;;;;9.77;1.83;;;14.80;99.90;;;;;;4978773;28;20549;-83
2022/10/01 10:58:27;;;;;;;14.80;2.20;;;15.30;99.90;;;;;;5000175;28;20054;-82
2022/10/01 11:03:25;;;;;;;12.85;3.33;;;15.80;99.90;;;;;;5004861;23;20307;-59
2022/10/01 11:05:55;;;;;;;14.98;3.03;;;15.90;99.90;;;;;;5001304;28;20161;-61
2022/10/01 11:08:27;;;;;;;11.60;3.33;;;15.90;99.90;;;;;;5004807;28;20091;-59
2022/10/01 11:11:14;;;;;;;12.35;2.95;;;16.10;99.90;;;;;;4984347;28;20101;-59
2022/10/01 11:13:58;;;;;;;12.18;2.67;;;16.10;99.90;;;;;;4983757;28;20049;-59
2022/10/01 11:16:34;;;;;;;15.05;3.58;;;16.30;99.90;;;;;;4979962;28;20038;-60
2022/10/01 11:19:18;;;;;;;13.93;2.90;;;16.30;99.90;;;;;;4982569;28;20485;-62
2022/10/01 11:21:49;;;;;;;;;;;16.40;99.90;;;;;;4983405;28;21084;-56
2022/10/01 11:24:45;;;;;;;12.25;3.05;;;16.40;99.90;;;;;;4984707;28;19933;-57
2022/10/01 11:27:35;;;;;;;19.48;3.28;;;16.40;99.90;;;;;;4984756;28;20034;-58
2022/10/01 11:30:08;;;;;;;7.85;1.95;;;16.20;99.90;;;;;;4983911;28;20035;-56
2022/10/01 11:32:54;;;;;;;10.05;2.03;;;16.10;99.90;;;;;;4984897;28;20055;-56
2022/10/01 11:35:42;;;;;;;7.65;2.00;;;16.00;99.90;;;;;;4984359;28;20041;-58
2022/10/01 11:38:30;;;;;;;7.22;1.77;;;15.90;99.90;;;;;;4986038;28;20085;-59
2022/10/01 11:41:22;;;;;;;10.45;2.05;;;16.10;99.90;;;;;;4983309;28;20250;-58
2022/10/01 11:43:56;;;;;;;11.80;2.25;;;15.90;99.90;;;;;;4984112;28;20483;-58
2022/10/01 11:46:34;;;;;;;;;;;15.80;99.90;;;;;;5001355;28;20054;-58
2022/10/01 11:49:23;;;;;;;7.28;2.00;;;15.70;99.90;;;;;;4976597;28;19928;-57
2022/10/01 11:51:59;;;;;;;11.32;2.25;;;15.70;99.90;;;;;;4982255;28;20098;-58
2022/10/01 11:54:27;;;;;;;14.80;2.50;;;15.80;99.90;;;;;;4985880;28;20251;-57
2022/10/01 11:59:59;;;;;;;11.43;2.80;;;16.30;99.90;;;;;;4984648;28;20049;-58
2022/10/01 12:02:50;;;;;;;12.88;2.17;;;16.40;99.90;;;;;;4984488;28;20556;-58
2022/10/01 12:05:23;;;;;;;11.63;2.22;;;16.70;99.90;;;;;;4983527;28;20121;-58
2022/10/01 12:08:08;;;;;;;11.57;1.95;;;16.80;99.90;;;;;;4984252;28;20378;-59
2022/10/01 12:11:08;;;;;;;7.20;1.75;;;17.00;99.90;;;;;;4981349;28;20047;-58
2022/10/01 12:13:39;;;;;;;12.18;1.50;;;17.10;99.90;;;;;;4983095;28;20053;-57
2022/10/01 12:16:18;;;;;;;5.45;1.30;;;17.20;99.90;;;;;;4979139;28;20433;-58
2022/10/01 12:19:02;;;;;;;6.82;1.75;;;17.40;99.90;;;;;;4985921;28;20074;-58
2022/10/01 12:21:37;;;;;;;9.75;2.22;;;17.60;99.90;;;;;;4985734;28;20453;-58
2022/10/01 12:24:10;;;;;;;8.75;1.80;;;17.60;99.90;;;;;;4987502;28;20077;-59
2022/10/01 12:26:41;;;;;;;10.60;1.97;;;17.60;99.90;;;;;;4985898;28;20043;-59
2022/10/01 12:29:49;;;;;;;8.48;2.00;;;17.50;99.90;;;;;;4984236;28;20302;-58
2022/10/01 12:32:32;;;;;;;9.13;1.92;;;17.00;99.90;;;;;;4982944;28;20043;-58
2022/10/01 12:35:11;;;;;;;11.97;2.57;;;16.90;99.90;;;;;;4981692;28;20042;-56
2022/10/01 12:38:07;;;;;;;7.97;2.53;;;16.60;99.90;;;;;;4981433;28;20045;-58
2022/10/01 12:41:04;;;;;;;13.45;2.42;;;16.40;99.90;;;;;;4980609;28;20050;-57
2022/10/01 12:43:51;;;;;;;12.45;2.50;;;16.20;99.90;;;;;;4981702;28;20315;-58
2022/10/01 12:46:30;;;;;;;10.77;2.40;;;15.90;99.90;;;;;;4980886;28;20401;-58
2022/10/01 12:48:59;;;;;;;13.40;2.47;;;16.00;99.90;;;;;;4984008;28;20035;-58
2022/10/01 12:51:40;;;;;;;8.15;2.05;;;16.10;99.90;;;;;;4983553;28;20052;-58
2022/10/01 12:54:16;;;;;;;6.43;1.48;;;16.40;99.90;;;;;;4978680;28;20238;-58
2022/10/01 12:56:55;;;;;;;9.25;2.30;;;16.60;99.90;;;;;;4988869;28;20049;-60
2022/10/01 12:59:51;;;;;;;5.78;1.98;;;16.80;99.90;;;;;;4985761;28;20493;-58
2022/10/01 13:02:43;;;;;;;9.68;1.90;;;17.00;99.90;;;;;;4982131;28;20498;-58
2022/10/01 13:05:18;;;;;;;12.15;2.22;;;16.80;99.90;;;;;;4986974;28;20042;-58
2022/10/01 13:08:03;;;;;;;12.68;2.80;;;16.90;99.90;;;;;;4988105;28;20125;-58
2022/10/01 13:10:55;;;;;;;12.50;2.35;;;17.30;99.90;;;;;;4986824;28;20050;-57
2022/10/01 13:13:31;;;;;;;11.55;2.78;;;17.30;99.90;;;;;;4990087;28;20057;-58
2022/10/01 13:16:17;;;;;;;12.63;2.17;;;17.30;99.90;;;;;;4990455;28;20263;-58
2022/10/01 13:19:05;;;;;;;12.68;3.22;;;17.00;99.90;;;;;;4990751;28;20129;-57